Time;durP1;ratioP1;P1;durP2;ratioP2;P2;SDS_P1;SDS_P2;PMS_P1;PMS_P2;Temp;Humidity;BMP_temperature;BMP_pressure;BME280_temperature;BME280_humidity;BME280_pressure;Samples;Min_cycle;Max_cycle;Signal;HPM_P1;HPM_P2
2022/11/30 03:48:48;;;;;;;2.08;0.80;;;7.20;99.90;;;;;;4805157;29;87143;-73
2022/11/30 03:51:14;;;;;;;1.85;0.70;;;7.20;99.90;;;;;;4805534;29;86703;-71
2022/11/30 03:53:40;;;;;;;2.50;1.00;;;7.30;99.90;;;;;;4805549;29;86967;-72
2022/11/30 03:56:08;;;;;;;2.08;0.77;;;7.40;99.90;;;;;;4806443;29;88216;-73
2022/11/30 03:58:34;;;;;;;3.03;1.05;;;7.40;99.90;;;;;;4806979;29;87295;-70
2022/11/30 04:01:00;;;;;;;3.35;0.82;;;7.50;99.90;;;;;;4815197;29;86260;-71
2022/11/30 04:03:26;;;;;;;2.83;0.65;;;7.50;99.90;;;;;;4806818;29;86023;-72
2022/11/30 04:05:52;;;;;;;3.15;0.57;;;7.60;99.90;;;;;;4807278;29;87381;-73
2022/11/30 04:08:18;;;;;;;4.40;1.02;;;7.60;99.90;;;;;;4808153;29;87236;-73
2022/11/30 04:10:46;;;;;;;2.15;0.63;;;7.60;99.90;;;;;;4822011;29;87536;-73
2022/11/30 04:13:12;;;;;;;2.70;0.55;;;7.60;99.90;;;;;;4814659;29;86280;-72
2022/11/30 04:15:38;;;;;;;1.90;0.57;;;7.60;99.90;;;;;;4806390;29;88387;-72
2022/11/30 04:18:04;;;;;;;5.18;0.70;;;7.70;99.90;;;;;;4804622;29;87516;-71
2022/11/30 04:20:30;;;;;;;1.48;0.40;;;7.70;99.90;;;;;;4806607;29;86918;-72
2022/11/30 04:22:57;;;;;;;1.73;0.50;;;7.70;99.90;;;;;;4813173;29;86536;-73
2022/11/30 04:25:23;;;;;;;2.15;0.60;;;7.70;99.90;;;;;;4807019;29;87479;-71
2022/11/30 04:27:48;;;;;;;1.92;0.63;;;7.70;99.90;;;;;;4806699;29;87017;-70
2022/11/30 04:30:14;;;;;;;1.95;0.70;;;7.70;99.90;;;;;;4806735;29;86984;-72
2022/11/30 04:32:41;;;;;;;2.72;0.50;;;7.70;99.70;;;;;;4805674;29;87357;-73
2022/11/30 04:35:08;;;;;;;3.08;0.80;;;7.60;99.90;;;;;;4804153;29;88108;-71
2022/11/30 04:37:33;;;;;;;1.95;0.60;;;7.70;99.90;;;;;;4813489;29;88367;-71
2022/11/30 04:39:59;;;;;;;2.33;0.60;;;7.70;99.90;;;;;;4805998;29;86769;-71
2022/11/30 04:42:25;;;;;;;2.50;0.85;;;7.70;99.80;;;;;;4805665;29;86799;-70
2022/11/30 04:44:50;;;;;;;2.10;0.50;;;7.80;99.70;;;;;;4805231;29;88107;-71
2022/11/30 04:47:16;;;;;;;1.40;0.60;;;7.70;99.60;;;;;;4805098;29;87428;-69
2022/11/30 04:49:41;;;;;;;1.92;0.50;;;7.70;99.10;;;;;;4778550;29;86279;-71
2022/11/30 04:52:07;;;;;;;2.33;0.75;;;7.70;99.30;;;;;;4796567;29;85879;-72
2022/11/30 04:54:33;;;;;;;2.78;0.93;;;7.70;99.10;;;;;;4789163;29;87770;-72
2022/11/30 04:56:59;;;;;;;2.00;0.77;;;7.70;99.30;;;;;;4787211;29;87089;-70
2022/11/30 04:59:24;;;;;;;2.42;1.00;;;7.70;99.60;;;;;;4791098;29;87764;-70
2022/11/30 05:01:50;;;;;;;2.78;0.77;;;7.80;99.50;;;;;;4798960;29;87091;-72
2022/11/30 05:04:16;;;;;;;4.80;1.00;;;7.80;99.40;;;;;;4786137;29;87144;-73
2022/11/30 05:06:41;;;;;;;2.83;0.73;;;7.80;99.20;;;;;;4784895;29;87177;-71
2022/11/30 05:09:08;;;;;;;4.13;0.70;;;7.80;99.20;;;;;;4782072;29;86281;-71
2022/11/30 05:11:33;;;;;;;2.97;0.68;;;7.70;99.60;;;;;;4784136;29;86814;-71
2022/11/30 05:13:59;;;;;;;2.35;0.73;;;7.70;99.60;;;;;;4779016;29;87248;-72
2022/11/30 05:16:25;;;;;;;3.38;0.85;;;7.70;99.60;;;;;;4779741;29;87027;-70
2022/11/30 05:18:50;;;;;;;2.10;0.85;;;7.80;99.30;;;;;;4779353;29;87453;-71
2022/11/30 05:21:16;;;;;;;2.38;1.10;;;7.80;99.20;;;;;;4781062;29;87063;-72
2022/11/30 05:23:42;;;;;;;3.08;0.75;;;7.80;99.20;;;;;;4787991;29;88663;-70
2022/11/30 05:26:08;;;;;;;6.68;1.40;;;7.80;99.20;;;;;;4797553;29;88006;-71
2022/11/30 05:28:35;;;;;;;2.95;1.30;;;7.80;99.10;;;;;;4789309;29;86379;-69
2022/11/30 05:31:04;;;;;;;3.50;1.25;;;7.90;98.90;;;;;;4788814;29;86838;-69
2022/11/30 05:33:31;;;;;;;2.45;1.30;;;7.80;99.00;;;;;;4783551;29;87104;-71
2022/11/30 05:35:56;;;;;;;2.60;1.10;;;7.80;98.90;;;;;;4782019;29;87381;-70
2022/11/30 05:38:22;;;;;;;2.72;1.02;;;7.80;98.80;;;;;;4795508;29;86677;-70
2022/11/30 05:40:48;;;;;;;2.70;1.02;;;7.80;99.00;;;;;;4788515;29;85754;-69
2022/11/30 05:43:13;;;;;;;3.08;1.23;;;7.80;99.20;;;;;;4786995;29;86842;-71
2022/11/30 05:45:39;;;;;;;2.53;1.10;;;7.80;99.20;;;;;;4788512;29;87367;-71
2022/11/30 05:48:05;;;;;;;4.68;1.33;;;7.70;99.50;;;;;;4789131;29;87703;-72
2022/11/30 05:50:31;;;;;;;2.72;1.23;;;7.80;99.80;;;;;;4796359;29;86255;-72
2022/11/30 05:52:59;;;;;;;3.03;0.90;;;7.80;99.40;;;;;;4787392;29;87498;-73
2022/11/30 05:55:26;;;;;;;5.47;1.65;;;7.90;99.50;;;;;;4788596;29;86980;-71
2022/11/30 05:57:52;;;;;;;2.40;1.00;;;7.80;99.40;;;;;;4786860;29;87148;-72
2022/11/30 06:00:20;;;;;;;4.60;1.42;;;7.80;99.60;;;;;;4785512;29;86809;-73
2022/11/30 06:02:45;;;;;;;3.67;1.70;;;7.80;99.50;;;;;;4787004;29;91093;-71
2022/11/30 06:05:12;;;;;;;5.88;2.00;;;7.70;99.90;;;;;;4772234;29;87142;-73
2022/11/30 06:07:38;;;;;;;8.85;2.75;;;7.80;99.90;;;;;;4785706;29;86388;-72
2022/11/30 06:10:05;;;;;;;6.75;2.72;;;7.80;99.90;;;;;;4787096;29;86351;-71
2022/11/30 06:12:31;;;;;;;8.48;3.17;;;7.80;99.90;;;;;;4787923;29;88130;-71
2022/11/30 06:14:56;;;;;;;14.13;4.45;;;7.80;99.90;;;;;;4791023;29;88018;-71
2022/11/30 06:17:22;;;;;;;9.43;3.88;;;7.70;99.90;;;;;;4792221;29;86704;-72
2022/11/30 06:19:47;;;;;;;8.07;2.90;;;7.70;99.90;;;;;;4791795;29;86365;-72
2022/11/30 06:22:13;;;;;;;7.25;3.33;;;7.60;99.90;;;;;;4790459;29;87999;-72
2022/11/30 06:24:39;;;;;;;6.30;2.63;;;7.50;99.90;;;;;;4788587;29;86848;-73
2022/11/30 06:27:04;;;;;;;6.47;2.40;;;7.70;99.90;;;;;;4784520;29;86816;-71
2022/11/30 06:29:30;;;;;;;4.78;1.83;;;7.70;99.90;;;;;;4787648;29;86261;-74
2022/11/30 06:31:56;;;;;;;4.40;2.17;;;7.80;99.90;;;;;;4787529;29;87442;-71
2022/11/30 06:34:21;;;;;;;3.60;1.90;;;7.90;99.90;;;;;;4783796;29;86818;-72
2022/11/30 06:36:47;;;;;;;6.28;2.25;;;7.90;99.90;;;;;;4791182;29;87878;-72
2022/11/30 06:39:13;;;;;;;6.35;2.70;;;7.90;99.80;;;;;;4793284;29;86758;-71
2022/11/30 06:41:38;;;;;;;5.82;2.70;;;7.90;99.80;;;;;;4784302;29;87726;-71
2022/11/30 06:44:08;;;;;;;9.90;3.40;;;7.90;99.80;;;;;;4778360;29;87115;-71
2022/11/30 06:46:34;;;;;;;8.80;3.65;;;7.80;99.70;;;;;;4791977;29;87202;-72
2022/11/30 06:49:00;;;;;;;7.20;3.03;;;7.80;99.90;;;;;;4786400;29;86652;-72
2022/11/30 06:51:25;;;;;;;7.40;2.92;;;7.80;99.90;;;;;;4788451;29;88349;-71
2022/11/30 06:53:51;;;;;;;9.15;3.05;;;7.80;99.40;;;;;;4789943;29;87553;-72
2022/11/30 06:56:17;;;;;;;7.55;3.17;;;7.80;99.50;;;;;;4787400;29;86665;-71
2022/11/30 06:58:43;;;;;;;8.38;2.92;;;7.70;99.30;;;;;;4793597;29;86780;-73
2022/11/30 07:01:12;;;;;;;10.40;3.70;;;7.70;99.50;;;;;;4791326;29;89006;-73
2022/11/30 07:03:39;;;;;;;9.10;3.85;;;7.70;99.40;;;;;;4788888;29;87335;-73
2022/11/30 07:06:12;;;;;;;11.05;3.88;;;7.60;99.60;;;;;;4788307;29;86303;-75
2022/11/30 07:08:39;;;;;;;10.77;4.78;;;7.60;99.70;;;;;;4796468;29;86217;-70
2022/11/30 07:11:05;;;;;;;11.50;4.40;;;7.70;99.60;;;;;;4787272;29;87107;-71
2022/11/30 07:13:31;;;;;;;12.38;4.85;;;7.70;99.30;;;;;;4790228;29;87150;-72
2022/11/30 07:15:57;;;;;;;11.68;5.57;;;7.70;99.40;;;;;;4790314;29;87225;-73
2022/11/30 07:18:23;;;;;;;13.43;5.88;;;7.70;99.30;;;;;;4787549;29;85928;-71
2022/11/30 07:20:49;;;;;;;15.95;6.90;;;7.70;99.40;;;;;;4789936;29;87525;-73
2022/11/30 07:26:08;;;;;;;21.27;9.13;;;7.80;99.20;;;;;;4784561;29;87836;-71
2022/11/30 07:28:36;;;;;;;16.75;7.93;;;7.80;99.20;;;;;;4785619;29;86841;-70
2022/11/30 07:31:13;;;;;;;17.65;7.05;;;7.80;98.90;;;;;;4778720;29;87728;-72
2022/11/30 07:33:38;;;;;;;;;;;7.70;99.40;;;;;;4797285;29;86998;-70
2022/11/30 07:36:04;;;;;;;18.58;7.53;;;7.70;98.90;;;;;;4788307;29;86306;-72
2022/11/30 07:38:30;;;;;;;20.70;7.93;;;7.70;99.20;;;;;;4784370;29;87124;-72
2022/11/30 07:40:57;;;;;;;18.08;8.25;;;7.80;99.30;;;;;;4788408;29;86855;-73
2022/11/30 07:43:22;;;;;;;21.58;8.70;;;7.70;99.40;;;;;;4786628;29;86790;-71
2022/11/30 07:45:52;;;;;;;22.77;9.30;;;7.70;98.90;;;;;;4791758;29;86940;-71
2022/11/30 07:48:18;;;;;;;25.30;11.27;;;7.70;99.30;;;;;;4787830;29;86441;-72
2022/11/30 07:50:44;;;;;;;27.20;12.30;;;7.70;99.00;;;;;;4794852;29;88687;-71
2022/11/30 07:53:10;;;;;;;24.42;9.32;;;7.70;98.90;;;;;;4784450;29;88376;-72
2022/11/30 07:55:36;;;;;;;19.95;8.68;;;7.80;98.80;;;;;;4795515;29;86856;-71
2022/11/30 07:58:01;;;;;;;25.17;10.20;;;7.80;99.00;;;;;;4793270;29;87327;-71
2022/11/30 08:00:27;;;;;;;29.13;11.02;;;7.90;99.00;;;;;;4790104;29;87001;-70
2022/11/30 08:02:53;;;;;;;27.15;10.45;;;7.90;99.20;;;;;;4799013;29;86595;-70
2022/11/30 08:05:18;;;;;;;26.85;11.07;;;7.90;98.80;;;;;;4787866;29;86995;-75
2022/11/30 08:07:47;;;;;;;24.00;9.88;;;7.90;99.00;;;;;;4788916;29;85540;-72
2022/11/30 08:10:12;;;;;;;22.15;9.63;;;8.00;99.00;;;;;;4784643;29;87411;-74
2022/11/30 08:12:38;;;;;;;23.52;9.75;;;8.00;98.80;;;;;;4793013;29;87447;-72
2022/11/30 08:15:04;;;;;;;23.30;9.93;;;8.10;98.80;;;;;;4789657;29;88012;-71
2022/11/30 08:17:30;;;;;;;24.00;9.45;;;8.10;98.30;;;;;;4791889;29;86211;-73
2022/11/30 08:19:56;;;;;;;24.88;9.73;;;8.20;98.30;;;;;;4796716;29;86699;-71
2022/11/30 08:22:21;;;;;;;23.73;9.60;;;8.30;98.20;;;;;;4788044;29;87406;-71
2022/11/30 08:24:47;;;;;;;26.65;9.93;;;8.30;97.70;;;;;;4791580;29;86727;-72
2022/11/30 08:27:12;;;;;;;25.85;9.82;;;8.40;97.40;;;;;;4788218;29;86540;-73
2022/11/30 08:29:38;;;;;;;21.27;9.35;;;8.40;97.60;;;;;;4786614;29;86856;-72
2022/11/30 08:32:04;;;;;;;23.77;8.90;;;8.40;97.70;;;;;;4792048;29;86303;-71
2022/11/30 08:34:30;;;;;;;22.88;9.18;;;8.50;97.40;;;;;;4796444;29;86973;-72
2022/11/30 08:36:55;;;;;;;25.08;9.38;;;8.50;97.30;;;;;;4781316;29;86727;-72
2022/11/30 08:39:21;;;;;;;25.98;10.50;;;8.50;97.30;;;;;;4791359;29;88399;-74
2022/11/30 08:41:47;;;;;;;22.13;9.75;;;8.40;97.00;;;;;;4794252;29;87768;-72
2022/11/30 08:44:12;;;;;;;23.27;9.85;;;8.40;97.20;;;;;;4799138;29;86797;-72
2022/11/30 08:46:38;;;;;;;22.95;9.80;;;8.50;97.00;;;;;;4790489;29;87320;-72
2022/11/30 08:49:04;;;;;;;20.58;9.13;;;8.50;96.90;;;;;;4786831;29;86780;-73
2022/11/30 08:51:29;;;;;;;24.63;9.70;;;8.40;96.80;;;;;;4786916;29;86974;-76
2022/11/30 08:53:56;;;;;;;24.02;8.73;;;8.50;96.90;;;;;;4789745;29;87349;-73
2022/11/30 08:56:22;;;;;;;19.80;8.60;;;8.50;96.50;;;;;;4786960;29;85946;-71
2022/11/30 08:58:48;;;;;;;18.52;7.97;;;8.50;96.60;;;;;;4789966;29;87551;-72
2022/11/30 09:01:17;;;;;;;20.02;8.23;;;8.50;96.30;;;;;;4786252;29;86959;-72
2022/11/30 09:03:44;;;;;;;20.08;8.43;;;8.60;97.00;;;;;;4790234;29;87274;-72
2022/11/30 09:06:16;;;;;;;18.23;7.88;;;8.70;96.60;;;;;;4789777;29;87522;-73
2022/11/30 09:08:45;;;;;;;19.52;8.05;;;8.70;96.60;;;;;;4786638;29;88635;-75
2022/11/30 09:11:25;;;;;;;19.38;7.68;;;8.80;96.50;;;;;;4789042;29;87203;-74
2022/11/30 09:13:56;;;;;;;16.80;7.60;;;8.90;96.30;;;;;;4783763;29;86878;-72
2022/11/30 09:16:22;;;;;;;15.77;6.32;;;8.90;96.20;;;;;;4786760;29;87943;-75
2022/11/30 09:18:49;;;;;;;12.15;6.10;;;9.00;96.40;;;;;;4787232;29;87501;-72
2022/11/30 09:21:17;;;;;;;12.95;5.25;;;9.00;95.60;;;;;;4781720;29;86656;-73
2022/11/30 09:23:44;;;;;;;11.02;4.80;;;9.10;94.70;;;;;;4782575;29;86431;-73
2022/11/30 09:26:12;;;;;;;10.15;4.70;;;9.00;93.90;;;;;;4789378;29;86768;-71
2022/11/30 09:28:38;;;;;;;10.75;4.93;;;9.10;93.60;;;;;;4789401;29;88443;-72
2022/11/30 09:31:06;;;;;;;10.85;4.78;;;9.10;93.90;;;;;;4784973;29;87798;-72
2022/11/30 09:33:33;;;;;;;10.75;4.18;;;9.10;93.80;;;;;;4785774;29;86665;-73
2022/11/30 09:36:02;;;;;;;9.65;4.60;;;9.20;93.70;;;;;;4789144;29;87210;-72
2022/11/30 09:38:28;;;;;;;9.77;4.05;;;9.20;93.20;;;;;;4786894;29;87784;-72
2022/11/30 09:40:59;;;;;;;8.77;4.28;;;9.30;93.30;;;;;;4787237;29;86962;-73
2022/11/30 09:43:48;;;;;;;7.88;3.65;;;9.40;92.90;;;;;;4784688;29;86733;-72
2022/11/30 09:46:14;;;;;;;7.60;3.63;;;9.40;92.20;;;;;;4779609;29;85584;-72
2022/11/30 09:48:59;;;;;;;8.38;3.85;;;9.50;92.40;;;;;;4787838;29;87778;-74
2022/11/30 09:51:45;;;;;;;8.15;3.42;;;9.50;92.60;;;;;;4783943;29;86564;-71
2022/11/30 09:54:15;;;;;;;6.45;3.22;;;9.40;91.20;;;;;;4786975;29;87289;-72
2022/11/30 09:56:42;;;;;;;8.93;3.55;;;9.40;91.10;;;;;;4791658;29;86733;-71
2022/11/30 09:59:15;;;;;;;6.63;2.90;;;9.40;91.30;;;;;;4786372;29;88698;-75
2022/11/30 10:01:43;;;;;;;7.65;3.33;;;9.30;91.30;;;;;;4786369;29;88270;-71
2022/11/30 10:04:22;;;;;;;6.40;2.63;;;9.30;91.40;;;;;;4781740;29;86438;-74
2022/11/30 10:07:10;;;;;;;7.53;3.30;;;9.20;90.70;;;;;;4789816;29;86729;-75
2022/11/30 10:09:57;;;;;;;7.88;3.10;;;9.20;91.00;;;;;;4786601;29;86871;-73
2022/11/30 10:12:55;;;;;;;6.22;3.00;;;9.20;90.90;;;;;;4783701;29;88545;-71
2022/11/30 10:15:31;;;;;;;8.77;3.97;;;9.10;90.90;;;;;;4764992;29;86928;-71
2022/11/30 10:18:19;;;;;;;8.77;3.45;;;9.10;91.40;;;;;;4787575;29;87065;-72
2022/11/30 10:21:00;;;;;;;8.85;3.72;;;9.20;91.30;;;;;;4785870;29;88354;-71
2022/11/30 10:23:44;;;;;;;10.55;3.95;;;9.10;91.50;;;;;;4785495;29;87591;-72
2022/11/30 10:26:33;;;;;;;10.82;3.83;;;9.00;91.60;;;;;;4784895;29;87454;-74
2022/11/30 10:29:23;;;;;;;8.50;3.65;;;8.90;91.40;;;;;;4785083;29;86301;-73
2022/11/30 10:31:54;;;;;;;10.07;3.90;;;8.70;90.70;;;;;;4780961;29;87770;-71
2022/11/30 10:34:21;;;;;;;10.88;4.30;;;8.60;91.30;;;;;;4784422;29;86861;-72
2022/11/30 10:36:55;;;;;;;9.45;4.13;;;8.50;91.60;;;;;;4784979;29;88496;-71
2022/11/30 10:39:53;;;;;;;11.27;4.07;;;8.40;91.60;;;;;;4786448;29;86278;-73
2022/11/30 10:42:46;;;;;;;11.73;4.20;;;8.20;91.40;;;;;;4776059;29;86924;-72
2022/11/30 10:45:16;;;;;;;11.77;4.07;;;8.10;91.20;;;;;;4785293;29;87589;-74
2022/11/30 10:48:11;;;;;;;10.38;4.00;;;8.10;91.10;;;;;;4785127;29;87634;-72
2022/11/30 10:50:38;;;;;;;9.45;3.85;;;8.10;91.00;;;;;;4791737;29;86948;-72
2022/11/30 10:53:05;;;;;;;8.95;3.78;;;8.10;90.90;;;;;;4786987;29;87553;-71
2022/11/30 10:55:38;;;;;;;11.10;4.47;;;8.10;91.40;;;;;;4787336;29;87092;-72
2022/11/30 10:58:38;;;;;;;10.63;4.40;;;8.10;91.70;;;;;;4787718;29;86839;-71
2022/11/30 11:01:09;;;;;;;11.85;4.53;;;8.00;90.80;;;;;;4784052;29;87334;-71
2022/11/30 11:03:36;;;;;;;9.65;3.72;;;8.00;91.70;;;;;;4782517;29;87272;-71
2022/11/30 11:06:12;;;;;;;13.40;3.15;;;8.00;91.10;;;;;;4783035;29;87553;-69
2022/11/30 11:08:41;;;;;;;8.63;3.40;;;8.00;91.40;;;;;;4786994;29;86736;-71
2022/11/30 11:11:26;;;;;;;11.30;3.67;;;8.00;91.20;;;;;;4784410;29;88248;-69
2022/11/30 11:13:52;;;;;;;9.07;3.60;;;7.90;90.40;;;;;;4777436;29;88389;-70
2022/11/30 11:16:17;;;;;;;11.23;3.70;;;7.90;90.70;;;;;;4785646;29;88024;-71
2022/11/30 11:18:55;;;;;;;16.02;3.63;;;8.00;90.80;;;;;;4780859;29;87061;-70
2022/11/30 11:21:22;;;;;;;10.35;3.63;;;8.10;91.40;;;;;;4775658;29;88607;-71
2022/11/30 11:23:52;;;;;;;10.80;3.78;;;8.20;90.70;;;;;;4781846;29;87866;-71
2022/11/30 11:26:22;;;;;;;10.98;3.60;;;8.30;90.20;;;;;;4778723;29;87120;-70
2022/11/30 11:28:50;;;;;;;11.07;4.38;;;8.30;90.00;;;;;;4781439;29;86995;-70
2022/11/30 11:31:16;;;;;;;11.32;3.83;;;8.30;90.50;;;;;;4779897;29;86063;-72
2022/11/30 11:33:51;;;;;;;9.30;3.78;;;8.20;89.80;;;;;;4780422;29;87947;-72
2022/11/30 11:36:25;;;;;;;9.85;3.58;;;8.20;89.40;;;;;;4782111;29;86439;-71
2022/11/30 11:38:51;;;;;;;10.32;4.03;;;8.30;90.20;;;;;;4784337;29;87275;-71
2022/11/30 11:41:27;;;;;;;11.02;3.63;;;8.20;90.50;;;;;;4779513;29;88401;-72
2022/11/30 11:44:08;;;;;;;10.48;4.07;;;8.30;90.20;;;;;;4779951;29;87253;-70
2022/11/30 11:46:37;;;;;;;9.82;3.95;;;8.30;90.60;;;;;;4788618;29;86482;-71
2022/11/30 11:49:02;;;;;;;11.30;3.90;;;8.30;90.40;;;;;;4782341;29;86618;-71
2022/11/30 11:51:37;;;;;;;8.65;3.63;;;8.30;91.00;;;;;;4777907;29;87075;-71
2022/11/30 11:54:28;;;;;;;9.27;3.72;;;8.40;90.30;;;;;;4776303;29;88320;-70
2022/11/30 11:56:56;;;;;;;10.07;3.95;;;8.40;90.30;;;;;;4787485;29;86320;-71
2022/11/30 11:59:30;;;;;;;9.93;4.05;;;8.40;90.20;;;;;;4774422;29;86864;-71
2022/11/30 12:02:31;;;;;;;14.57;4.20;;;8.40;90.40;;;;;;4788204;29;86360;-70
2022/11/30 12:05:14;;;;;;;8.30;3.60;;;8.50;89.70;;;;;;4768939;29;88821;-70
2022/11/30 12:07:49;;;;;;;10.10;3.88;;;8.50;89.40;;;;;;4777876;29;88634;-71
2022/11/30 12:10:41;;;;;;;10.18;3.90;;;8.50;89.20;;;;;;4785336;29;86827;-70
2022/11/30 12:13:18;;;;;;;11.07;4.28;;;8.50;89.10;;;;;;4789035;29;87059;-70
2022/11/30 12:15:56;;;;;;;10.77;4.65;;;8.50;89.00;;;;;;4785460;29;87546;-71
2022/11/30 12:18:38;;;;;;;10.95;4.35;;;8.50;89.00;;;;;;4787274;29;87001;-72
2022/11/30 12:21:08;;;;;;;12.38;4.35;;;8.40;88.60;;;;;;4790172;29;86262;-71
2022/11/30 12:24:05;;;;;;;11.27;4.40;;;8.40;89.10;;;;;;4788656;29;85942;-71
2022/11/30 12:26:46;;;;;;;11.05;4.35;;;8.40;88.50;;;;;;4783663;29;87040;-71
2022/11/30 12:29:43;;;;;;;10.98;4.40;;;8.50;89.40;;;;;;4784381;29;86914;-71
2022/11/30 12:32:11;;;;;;;12.52;4.50;;;8.50;88.40;;;;;;4759918;29;88533;-68
2022/11/30 12:34:59;;;;;;;10.77;4.43;;;8.40;88.20;;;;;;4790441;29;86276;-69
2022/11/30 12:37:58;;;;;;;10.88;4.53;;;8.40;88.30;;;;;;4787260;29;87486;-70
2022/11/30 12:40:42;;;;;;;11.75;4.30;;;8.40;88.40;;;;;;4795212;29;87416;-70
2022/11/30 12:43:20;;;;;;;10.80;4.55;;;8.40;88.10;;;;;;4790721;29;87339;-70
2022/11/30 12:45:47;;;;;;;10.68;4.28;;;8.40;87.70;;;;;;4781851;29;87187;-72
2022/11/30 12:48:25;;;;;;;12.23;4.32;;;8.40;87.60;;;;;;4783598;29;87177;-72
2022/11/30 12:51:02;;;;;;;10.00;4.25;;;8.40;86.90;;;;;;4791500;29;87277;-72
2022/11/30 12:53:36;;;;;;;10.80;4.43;;;8.40;86.60;;;;;;4784442;29;86973;-70
2022/11/30 12:56:05;;;;;;;12.32;4.95;;;8.30;87.00;;;;;;4783104;29;86909;-70
2022/11/30 12:59:03;;;;;;;21.92;7.82;;;8.20;85.70;;;;;;4783791;29;87816;-70
2022/11/30 13:01:37;;;;;;;15.40;6.15;;;8.20;87.50;;;;;;4760125;29;87510;-70
2022/11/30 13:04:34;;;;;;;14.02;5.95;;;8.10;86.30;;;;;;4780216;29;86992;-71
2022/11/30 13:07:07;;;;;;;14.18;5.82;;;8.10;87.90;;;;;;4781999;29;87097;-70
2022/11/30 13:09:45;;;;;;;15.18;4.65;;;8.00;87.40;;;;;;4782138;29;87748;-71
2022/11/30 13:12:24;;;;;;;14.85;4.90;;;8.00;88.20;;;;;;4789455;29;88078;-70
2022/11/30 13:14:54;;;;;;;11.27;4.65;;;7.90;87.90;;;;;;4780358;29;86750;-71
2022/11/30 13:17:21;;;;;;;13.18;5.78;;;7.80;86.90;;;;;;4787162;29;86344;-70
2022/11/30 13:20:14;;;;;;;12.98;5.78;;;7.80;88.00;;;;;;4790142;29;87894;-71
2022/11/30 13:23:01;;;;;;;13.82;6.00;;;7.80;89.00;;;;;;4780677;29;87038;-71
2022/11/30 13:25:35;;;;;;;12.73;5.25;;;7.70;89.50;;;;;;4784244;29;87293;-72
2022/11/30 13:28:14;;;;;;;12.57;5.45;;;7.70;88.70;;;;;;4787314;29;88246;-71
2022/11/30 13:31:06;;;;;;;13.60;4.93;;;7.70;89.50;;;;;;4781494;29;87312;-70
2022/11/30 13:33:53;;;;;;;15.63;5.65;;;7.70;89.50;;;;;;4780987;29;86902;-70
2022/11/30 13:36:43;;;;;;;12.60;5.10;;;7.70;89.20;;;;;;4785070;29;86939;-71
2022/11/30 13:39:24;;;;;;;17.77;4.78;;;7.70;90.90;;;;;;4788064;29;87177;-71
2022/11/30 13:42:08;;;;;;;13.48;5.13;;;7.70;88.90;;;;;;4789562;29;87554;-71
2022/11/30 13:44:39;;;;;;;15.25;5.70;;;7.70;90.30;;;;;;4781875;29;87333;-71
2022/11/30 13:47:16;;;;;;;11.43;4.68;;;7.70;90.20;;;;;;4784021;29;87289;-71
2022/11/30 13:49:42;;;;;;;12.63;4.47;;;7.70;90.50;;;;;;4784900;29;87249;-71
2022/11/30 13:52:12;;;;;;;11.32;4.70;;;7.70;90.10;;;;;;4779565;29;88434;-70
2022/11/30 13:54:57;;;;;;;12.95;5.05;;;7.70;89.40;;;;;;4784790;29;87507;-70
2022/11/30 13:57:28;;;;;;;13.88;4.80;;;7.60;88.60;;;;;;4785203;29;86337;-70
2022/11/30 13:59:56;;;;;;;11.25;4.35;;;7.60;89.50;;;;;;4786511;29;86324;-71
2022/11/30 14:02:39;;;;;;;11.95;4.70;;;7.40;89.40;;;;;;4785743;29;86896;-71
2022/11/30 14:05:17;;;;;;;;;;;7.40;89.20;;;;;;4782410;29;86706;-71
2022/11/30 14:07:49;;;;;;;10.30;4.43;;;7.40;89.80;;;;;;4786753;29;86816;-71
2022/11/30 14:10:29;;;;;;;12.25;4.53;;;7.40;90.20;;;;;;4785882;29;85865;-71
2022/11/30 14:13:23;;;;;;;11.48;4.78;;;7.40;90.00;;;;;;4788453;29;87535;-70
2022/11/30 14:15:54;;;;;;;11.18;4.45;;;7.30;90.40;;;;;;4773981;29;87514;-71
2022/11/30 14:18:20;;;;;;;12.45;4.53;;;7.20;90.10;;;;;;4788662;29;87246;-71
2022/11/30 14:21:24;;;;;;;11.63;4.90;;;7.20;89.90;;;;;;4785787;29;87221;-70
2022/11/30 14:23:55;;;;;;;13.27;4.40;;;7.20;90.00;;;;;;4785507;29;87078;-71
2022/11/30 14:26:41;;;;;;;10.38;4.00;;;7.10;90.10;;;;;;4783701;29;86951;-71
2022/11/30 14:29:06;;;;;;;10.60;4.28;;;7.10;90.40;;;;;;4789151;29;86259;-71
2022/11/30 14:31:44;;;;;;;11.68;4.68;;;7.10;90.50;;;;;;4785476;29;86958;-71
2022/11/30 14:34:21;;;;;;;12.55;4.85;;;7.10;90.20;;;;;;4788419;29;87493;-71
2022/11/30 14:37:01;;;;;;;13.50;5.18;;;7.10;90.20;;;;;;4786221;29;88155;-71
2022/11/30 14:39:31;;;;;;;11.05;4.25;;;7.00;90.20;;;;;;4785906;29;86442;-71
2022/11/30 14:41:57;;;;;;;10.07;4.22;;;7.00;90.40;;;;;;4783906;29;86818;-71
2022/11/30 14:44:23;;;;;;;11.40;4.85;;;7.10;90.70;;;;;;4786741;29;88082;-70
2022/11/30 14:46:48;;;;;;;10.50;4.63;;;7.00;90.40;;;;;;4789027;29;88919;-71
2022/11/30 14:49:16;;;;;;;11.50;4.65;;;7.10;90.90;;;;;;4784209;29;87085;-71
2022/11/30 14:51:55;;;;;;;12.70;5.30;;;7.10;90.40;;;;;;4783009;29;86872;-71
2022/11/30 14:54:39;;;;;;;14.30;4.68;;;7.10;90.30;;;;;;4787124;29;87502;-71
2022/11/30 14:57:20;;;;;;;11.55;5.03;;;7.00;90.60;;;;;;4784544;29;87408;-71
2022/11/30 14:59:52;;;;;;;10.48;4.47;;;7.00;90.70;;;;;;4777186;29;87303;-68
2022/11/30 15:02:29;;;;;;;14.13;4.57;;;6.90;90.80;;;;;;4785004;29;85608;-70
2022/11/30 15:04:56;;;;;;;13.80;4.90;;;6.90;90.90;;;;;;4784640;29;87447;-70
2022/11/30 15:07:23;;;;;;;15.45;4.68;;;6.90;91.10;;;;;;4782576;29;87712;-70
2022/11/30 15:10:00;;;;;;;11.32;5.03;;;6.90;90.90;;;;;;4789634;29;89205;-72
2022/11/30 15:12:26;;;;;;;15.27;5.82;;;6.90;91.20;;;;;;4779115;29;86822;-69
2022/11/30 15:15:07;;;;;;;12.95;4.57;;;6.90;91.10;;;;;;4784314;29;87539;-70
2022/11/30 15:17:50;;;;;;;11.27;4.20;;;6.90;91.20;;;;;;4785065;29;87263;-70
2022/11/30 15:20:18;;;;;;;12.95;4.70;;;6.90;90.90;;;;;;4787003;29;86902;-70
2022/11/30 15:22:44;;;;;;;10.15;4.22;;;6.80;91.00;;;;;;4784742;29;86398;-70
2022/11/30 15:25:13;;;;;;;11.90;4.40;;;6.80;91.20;;;;;;4789509;29;87192;-70
2022/11/30 15:27:39;;;;;;;10.32;3.90;;;6.80;91.10;;;;;;4785038;29;88300;-68
2022/11/30 15:30:06;;;;;;;9.77;3.90;;;6.70;91.40;;;;;;4784673;29;87102;-68
2022/11/30 15:32:31;;;;;;;10.85;4.38;;;6.70;91.40;;;;;;4784942;29;86735;-69
2022/11/30 15:34:59;;;;;;;8.98;3.72;;;6.70;91.40;;;;;;4789333;29;88441;-70
2022/11/30 15:37:36;;;;;;;11.95;4.53;;;6.80;91.40;;;;;;4787334;29;88596;-72
2022/11/30 15:40:06;;;;;;;11.68;4.53;;;6.80;91.30;;;;;;4783206;29;86748;-72
2022/11/30 15:42:40;;;;;;;10.30;4.15;;;6.80;91.10;;;;;;4782579;29;86978;-70
2022/11/30 15:45:22;;;;;;;9.13;3.97;;;6.70;91.10;;;;;;4786225;29;88488;-71
2022/11/30 15:47:49;;;;;;;11.85;4.28;;;6.70;91.20;;;;;;4772863;29;88545;-70
2022/11/30 15:50:33;;;;;;;11.00;4.30;;;6.70;91.30;;;;;;4787558;29;87208;-70
2022/11/30 15:53:02;;;;;;;11.10;4.35;;;6.70;91.30;;;;;;4783018;29;86164;-68
2022/11/30 15:55:41;;;;;;;11.00;4.10;;;6.60;91.40;;;;;;4784938;29;86857;-71
2022/11/30 15:58:46;;;;;;;10.65;3.78;;;6.70;91.40;;;;;;4788361;29;87183;-71
2022/11/30 16:01:11;;;;;;;8.55;3.33;;;6.70;91.30;;;;;;4784865;29;88162;-69
2022/11/30 16:03:57;;;;;;;8.57;2.97;;;6.60;91.10;;;;;;4785349;29;86746;-71
2022/11/30 16:06:46;;;;;;;9.50;3.45;;;6.60;91.30;;;;;;4775886;29;87479;-71
2022/11/30 16:09:31;;;;;;;10.02;3.35;;;6.60;91.50;;;;;;4777849;29;89218;-70
2022/11/30 16:11:59;;;;;;;10.70;3.53;;;6.60;91.60;;;;;;4774431;29;86785;-69
2022/11/30 16:14:25;;;;;;;10.02;3.83;;;6.50;91.30;;;;;;4793178;29;86899;-68
2022/11/30 16:16:52;;;;;;;10.57;3.50;;;6.60;91.70;;;;;;4790779;29;87698;-71
2022/11/30 16:19:18;;;;;;;11.57;4.30;;;6.60;91.40;;;;;;4787307;29;86560;-71
2022/11/30 16:21:44;;;;;;;10.60;3.38;;;6.50;91.50;;;;;;4788653;29;86713;-70
2022/11/30 16:24:14;;;;;;;11.75;3.50;;;6.50;91.60;;;;;;4789098;29;86805;-68
2022/11/30 16:26:40;;;;;;;10.20;3.58;;;6.40;91.90;;;;;;4783100;29;87841;-70
2022/11/30 16:29:06;;;;;;;10.18;3.83;;;6.50;91.90;;;;;;4787710;29;88151;-70
2022/11/30 16:31:33;;;;;;;8.23;3.40;;;6.30;91.90;;;;;;4788376;29;87080;-71
2022/11/30 16:33:58;;;;;;;11.38;4.00;;;6.40;91.80;;;;;;4789875;29;86407;-71
2022/11/30 16:36:24;;;;;;;9.63;3.20;;;6.40;92.00;;;;;;4788625;29;87434;-70
2022/11/30 16:38:51;;;;;;;12.77;3.58;;;6.40;91.90;;;;;;4787163;29;87091;-70
2022/11/30 16:41:21;;;;;;;10.75;3.78;;;6.40;92.00;;;;;;4787634;29;86770;-71
2022/11/30 16:43:49;;;;;;;10.10;3.80;;;6.40;91.80;;;;;;4788055;29;85964;-70
2022/11/30 16:46:20;;;;;;;9.70;3.90;;;6.40;91.80;;;;;;4780501;29;87918;-70
2022/11/30 16:48:46;;;;;;;9.90;3.85;;;6.40;91.90;;;;;;4784116;29;87211;-70
2022/11/30 16:51:26;;;;;;;10.95;4.20;;;6.40;92.10;;;;;;4779472;29;88791;-71
2022/11/30 16:53:52;;;;;;;10.63;3.67;;;6.40;92.20;;;;;;4779932;29;88824;-71
2022/11/30 16:56:18;;;;;;;10.27;3.70;;;6.40;91.80;;;;;;4786079;29;86934;-70
2022/11/30 16:58:44;;;;;;;10.68;3.90;;;6.40;92.10;;;;;;4780322;29;87189;-70
2022/11/30 17:01:14;;;;;;;11.13;3.92;;;6.40;92.10;;;;;;4780353;29;87184;-69
2022/11/30 17:03:43;;;;;;;10.80;4.13;;;6.50;92.10;;;;;;4780572;29;86854;-67